sensor_id;sensor_type;location;lat;lon;timestamp;P1;durP1;ratioP1;P2;durP2;ratioP2
76176;SDS011;64938;47.696;8.066;2024-02-28T00:00:05;20.50;;;12.50;;
76176;SDS011;64938;47.696;8.066;2024-02-28T00:02:31;19.43;;;11.93;;
76176;SDS011;64938;47.696;8.066;2024-02-28T00:04:57;19.07;;;12.80;;
76176;SDS011;64938;47.696;8.066;2024-02-28T00:07:24;20.83;;;12.73;;
76176;SDS011;64938;47.696;8.066;2024-02-28T00:09:50;18.97;;;12.27;;
76176;SDS011;64938;47.696;8.066;2024-02-28T00:12:16;16.90;;;11.30;;
76176;SDS011;64938;47.696;8.066;2024-02-28T00:14:42;16.23;;;11.10;;
76176;SDS011;64938;47.696;8.066;2024-02-28T00:17:07;17.90;;;11.80;;
76176;SDS011;64938;47.696;8.066;2024-02-28T00:19:34;15.83;;;11.57;;
76176;SDS011;64938;47.696;8.066;2024-02-28T00:21:59;20.70;;;11.77;;
76176;SDS011;64938;47.696;8.066;2024-02-28T00:24:26;15.87;;;10.40;;
76176;SDS011;64938;47.696;8.066;2024-02-28T00:26:52;16.23;;;10.90;;
76176;SDS011;64938;47.696;8.066;2024-02-28T00:29:18;15.47;;;11.33;;
76176;SDS011;64938;47.696;8.066;2024-02-28T00:31:44;16.40;;;10.13;;
76176;SDS011;64938;47.696;8.066;2024-02-28T00:34:09;16.50;;;11.20;;
76176;SDS011;64938;47.696;8.066;2024-02-28T00:36:35;13.27;;;9.60;;
76176;SDS011;64938;47.696;8.066;2024-02-28T00:39:01;15.93;;;11.03;;
76176;SDS011;64938;47.696;8.066;2024-02-28T00:41:29;13.57;;;9.70;;
76176;SDS011;64938;47.696;8.066;2024-02-28T00:43:55;15.37;;;10.77;;
76176;SDS011;64938;47.696;8.066;2024-02-28T00:46:21;17.50;;;11.10;;
76176;SDS011;64938;47.696;8.066;2024-02-28T00:48:46;16.23;;;10.70;;
76176;SDS011;64938;47.696;8.066;2024-02-28T00:51:12;16.63;;;10.20;;
76176;SDS011;64938;47.696;8.066;2024-02-28T00:53:39;15.10;;;10.90;;
76176;SDS011;64938;47.696;8.066;2024-02-28T00:56:05;14.70;;;9.37;;
76176;SDS011;64938;47.696;8.066;2024-02-28T00:58:31;15.73;;;10.37;;
76176;SDS011;64938;47.696;8.066;2024-02-28T01:00:57;14.60;;;9.43;;
76176;SDS011;64938;47.696;8.066;2024-02-28T01:03:23;16.90;;;9.70;;
76176;SDS011;64938;47.696;8.066;2024-02-28T01:05:49;13.20;;;10.13;;
76176;SDS011;64938;47.696;8.066;2024-02-28T01:08:16;13.30;;;9.20;;
76176;SDS011;64938;47.696;8.066;2024-02-28T01:10:43;13.30;;;9.43;;
76176;SDS011;64938;47.696;8.066;2024-02-28T01:13:09;13.23;;;9.13;;
76176;SDS011;64938;47.696;8.066;2024-02-28T01:15:35;14.90;;;9.00;;
76176;SDS011;64938;47.696;8.066;2024-02-28T01:18:01;13.60;;;8.60;;
76176;SDS011;64938;47.696;8.066;2024-02-28T01:20:27;13.90;;;9.40;;
76176;SDS011;64938;47.696;8.066;2024-02-28T01:22:53;12.70;;;9.20;;
76176;SDS011;64938;47.696;8.066;2024-02-28T01:25:18;13.17;;;8.93;;
76176;SDS011;64938;47.696;8.066;2024-02-28T01:27:44;13.43;;;9.27;;
76176;SDS011;64938;47.696;8.066;2024-02-28T01:30:10;12.57;;;8.77;;
76176;SDS011;64938;47.696;8.066;2024-02-28T01:32:36;14.50;;;9.27;;
76176;SDS011;64938;47.696;8.066;2024-02-28T01:35:02;11.33;;;8.40;;
76176;SDS011;64938;47.696;8.066;2024-02-28T01:37:28;11.53;;;8.20;;
76176;SDS011;64938;47.696;8.066;2024-02-28T01:39:54;13.43;;;9.43;;
76176;SDS011;64938;47.696;8.066;2024-02-28T01:42:20;13.53;;;8.87;;
76176;SDS011;64938;47.696;8.066;2024-02-28T01:44:47;12.43;;;8.83;;
76176;SDS011;64938;47.696;8.066;2024-02-28T01:47:14;16.00;;;10.63;;
76176;SDS011;64938;47.696;8.066;2024-02-28T01:49:40;16.33;;;9.90;;
76176;SDS011;64938;47.696;8.066;2024-02-28T01:52:06;13.63;;;9.93;;
76176;SDS011;64938;47.696;8.066;2024-02-28T01:54:33;14.53;;;9.80;;
76176;SDS011;64938;47.696;8.066;2024-02-28T01:57:00;16.30;;;10.77;;
76176;SDS011;64938;47.696;8.066;2024-02-28T01:59:27;13.80;;;10.70;;
76176;SDS011;64938;47.696;8.066;2024-02-28T02:01:54;14.67;;;9.07;;
76176;SDS011;64938;47.696;8.066;2024-02-28T02:04:20;12.57;;;9.20;;
76176;SDS011;64938;47.696;8.066;2024-02-28T02:06:46;14.67;;;9.97;;
76176;SDS011;64938;47.696;8.066;2024-02-28T02:09:12;12.90;;;9.33;;
76176;SDS011;64938;47.696;8.066;2024-02-28T02:11:38;13.23;;;8.63;;
76176;SDS011;64938;47.696;8.066;2024-02-28T02:14:04;14.80;;;9.17;;
76176;SDS011;64938;47.696;8.066;2024-02-28T02:16:31;15.07;;;9.50;;
76176;SDS011;64938;47.696;8.066;2024-02-28T02:18:57;14.37;;;9.87;;
76176;SDS011;64938;47.696;8.066;2024-02-28T02:21:23;12.03;;;8.40;;
76176;SDS011;64938;47.696;8.066;2024-02-28T02:23:52;12.10;;;8.30;;
76176;SDS011;64938;47.696;8.066;2024-02-28T02:26:18;12.90;;;9.07;;
76176;SDS011;64938;47.696;8.066;2024-02-28T02:28:43;14.30;;;9.20;;
76176;SDS011;64938;47.696;8.066;2024-02-28T02:31:10;13.03;;;8.97;;
76176;SDS011;64938;47.696;8.066;2024-02-28T02:33:38;14.63;;;9.53;;
76176;SDS011;64938;47.696;8.066;2024-02-28T02:36:04;13.60;;;9.30;;
76176;SDS011;64938;47.696;8.066;2024-02-28T02:38:30;14.73;;;9.53;;
76176;SDS011;64938;47.696;8.066;2024-02-28T02:40:56;13.50;;;9.53;;
76176;SDS011;64938;47.696;8.066;2024-02-28T02:43:21;12.60;;;9.03;;
76176;SDS011;64938;47.696;8.066;2024-02-28T02:45:47;13.77;;;8.30;;
76176;SDS011;64938;47.696;8.066;2024-02-28T02:48:13;13.70;;;9.20;;
76176;SDS011;64938;47.696;8.066;2024-02-28T02:50:39;14.33;;;9.77;;
76176;SDS011;64938;47.696;8.066;2024-02-28T02:53:06;14.33;;;9.50;;
76176;SDS011;64938;47.696;8.066;2024-02-28T02:55:34;16.37;;;9.07;;
76176;SDS011;64938;47.696;8.066;2024-02-28T02:58:00;15.70;;;9.73;;
76176;SDS011;64938;47.696;8.066;2024-02-28T03:00:27;13.10;;;9.60;;
76176;SDS011;64938;47.696;8.066;2024-02-28T03:02:54;14.47;;;9.40;;
76176;SDS011;64938;47.696;8.066;2024-02-28T03:05:20;14.80;;;8.40;;
76176;SDS011;64938;47.696;8.066;2024-02-28T03:07:46;12.33;;;8.60;;
76176;SDS011;64938;47.696;8.066;2024-02-28T03:10:11;12.63;;;8.33;;
76176;SDS011;64938;47.696;8.066;2024-02-28T03:12:37;12.90;;;7.63;;
76176;SDS011;64938;47.696;8.066;2024-02-28T03:15:03;11.60;;;7.83;;
76176;SDS011;64938;47.696;8.066;2024-02-28T03:17:31;13.90;;;8.77;;
76176;SDS011;64938;47.696;8.066;2024-02-28T03:19:57;11.13;;;8.60;;
76176;SDS011;64938;47.696;8.066;2024-02-28T03:22:22;11.50;;;8.00;;
76176;SDS011;64938;47.696;8.066;2024-02-28T03:24:48;12.73;;;8.30;;
76176;SDS011;64938;47.696;8.066;2024-02-28T03:27:14;11.47;;;8.03;;
76176;SDS011;64938;47.696;8.066;2024-02-28T03:29:40;10.83;;;7.53;;
76176;SDS011;64938;47.696;8.066;2024-02-28T03:32:06;13.40;;;8.27;;
76176;SDS011;64938;47.696;8.066;2024-02-28T03:34:32;11.67;;;8.30;;
76176;SDS011;64938;47.696;8.066;2024-02-28T03:36:58;12.50;;;8.37;;
76176;SDS011;64938;47.696;8.066;2024-02-28T03:39:24;11.07;;;8.10;;
76176;SDS011;64938;47.696;8.066;2024-02-28T03:41:50;10.67;;;7.23;;
76176;SDS011;64938;47.696;8.066;2024-02-28T03:44:16;11.17;;;7.70;;
76176;SDS011;64938;47.696;8.066;2024-02-28T03:46:41;10.97;;;7.10;;
76176;SDS011;64938;47.696;8.066;2024-02-28T03:49:07;10.80;;;7.27;;
76176;SDS011;64938;47.696;8.066;2024-02-28T03:51:38;11.03;;;8.00;;
76176;SDS011;64938;47.696;8.066;2024-02-28T03:54:05;11.77;;;8.53;;
76176;SDS011;64938;47.696;8.066;2024-02-28T03:56:31;10.67;;;7.80;;
76176;SDS011;64938;47.696;8.066;2024-02-28T03:58:57;11.17;;;7.27;;
76176;SDS011;64938;47.696;8.066;2024-02-28T04:01:23;11.27;;;8.10;;
76176;SDS011;64938;47.696;8.066;2024-02-28T04:03:49;13.10;;;7.97;;
76176;SDS011;64938;47.696;8.066;2024-02-28T04:06:15;13.30;;;8.30;;
76176;SDS011;64938;47.696;8.066;2024-02-28T04:08:40;16.07;;;8.77;;
76176;SDS011;64938;47.696;8.066;2024-02-28T04:11:07;13.77;;;9.13;;
76176;SDS011;64938;47.696;8.066;2024-02-28T04:13:33;15.73;;;10.00;;
76176;SDS011;64938;47.696;8.066;2024-02-28T04:15:59;14.90;;;9.63;;
76176;SDS011;64938;47.696;8.066;2024-02-28T04:18:25;16.23;;;9.00;;
76176;SDS011;64938;47.696;8.066;2024-02-28T04:20:52;14.57;;;9.30;;
76176;SDS011;64938;47.696;8.066;2024-02-28T04:23:18;16.43;;;10.20;;
76176;SDS011;64938;47.696;8.066;2024-02-28T04:25:44;15.07;;;9.70;;
76176;SDS011;64938;47.696;8.066;2024-02-28T04:28:10;14.43;;;9.70;;
76176;SDS011;64938;47.696;8.066;2024-02-28T04:30:35;12.07;;;8.80;;
76176;SDS011;64938;47.696;8.066;2024-02-28T04:33:01;16.27;;;10.47;;
76176;SDS011;64938;47.696;8.066;2024-02-28T04:35:27;14.50;;;9.53;;
76176;SDS011;64938;47.696;8.066;2024-02-28T04:37:53;14.43;;;10.07;;
76176;SDS011;64938;47.696;8.066;2024-02-28T04:40:19;12.60;;;9.50;;
76176;SDS011;64938;47.696;8.066;2024-02-28T04:42:45;15.03;;;10.10;;
76176;SDS011;64938;47.696;8.066;2024-02-28T04:45:11;16.30;;;9.60;;
76176;SDS011;64938;47.696;8.066;2024-02-28T04:47:37;15.03;;;10.13;;
76176;SDS011;64938;47.696;8.066;2024-02-28T04:50:03;14.40;;;9.80;;
76176;SDS011;64938;47.696;8.066;2024-02-28T04:52:30;14.43;;;9.90;;
76176;SDS011;64938;47.696;8.066;2024-02-28T04:54:57;15.80;;;10.57;;
76176;SDS011;64938;47.696;8.066;2024-02-28T04:57:23;17.13;;;10.20;;
76176;SDS011;64938;47.696;8.066;2024-02-28T04:59:52;16.40;;;9.90;;
76176;SDS011;64938;47.696;8.066;2024-02-28T05:02:18;13.83;;;9.60;;
76176;SDS011;64938;47.696;8.066;2024-02-28T05:04:47;14.60;;;9.90;;
76176;SDS011;64938;47.696;8.066;2024-02-28T05:07:13;13.17;;;9.10;;
76176;SDS011;64938;47.696;8.066;2024-02-28T05:09:38;12.13;;;9.37;;
76176;SDS011;64938;47.696;8.066;2024-02-28T05:12:04;14.60;;;9.70;;
76176;SDS011;64938;47.696;8.066;2024-02-28T05:14:30;11.13;;;7.87;;
76176;SDS011;64938;47.696;8.066;2024-02-28T05:16:56;16.07;;;9.60;;
76176;SDS011;64938;47.696;8.066;2024-02-28T05:19:22;13.90;;;8.27;;
76176;SDS011;64938;47.696;8.066;2024-02-28T05:21:48;12.77;;;8.50;;
76176;SDS011;64938;47.696;8.066;2024-02-28T05:24:14;11.73;;;8.70;;
76176;SDS011;64938;47.696;8.066;2024-02-28T05:26:40;13.70;;;10.00;;
76176;SDS011;64938;47.696;8.066;2024-02-28T05:29:06;14.73;;;9.47;;
76176;SDS011;64938;47.696;8.066;2024-02-28T05:31:32;12.43;;;8.30;;
76176;SDS011;64938;47.696;8.066;2024-02-28T05:33:58;11.73;;;8.13;;
76176;SDS011;64938;47.696;8.066;2024-02-28T05:36:25;11.53;;;8.37;;
76176;SDS011;64938;47.696;8.066;2024-02-28T05:38:53;11.70;;;7.90;;
76176;SDS011;64938;47.696;8.066;2024-02-28T05:41:20;12.63;;;8.33;;
76176;SDS011;64938;47.696;8.066;2024-02-28T05:43:46;11.53;;;8.20;;
76176;SDS011;64938;47.696;8.066;2024-02-28T05:46:12;12.33;;;8.53;;
76176;SDS011;64938;47.696;8.066;2024-02-28T05:48:40;10.90;;;7.83;;
76176;SDS011;64938;47.696;8.066;2024-02-28T05:51:06;13.20;;;8.70;;
76176;SDS011;64938;47.696;8.066;2024-02-28T05:53:32;12.07;;;9.07;;
76176;SDS011;64938;47.696;8.066;2024-02-28T05:56:01;10.73;;;7.53;;
76176;SDS011;64938;47.696;8.066;2024-02-28T05:58:28;11.27;;;7.63;;
76176;SDS011;64938;47.696;8.066;2024-02-28T06:00:54;12.07;;;7.93;;
76176;SDS011;64938;47.696;8.066;2024-02-28T06:03:20;11.83;;;8.70;;
76176;SDS011;64938;47.696;8.066;2024-02-28T06:05:46;12.07;;;8.50;;
76176;SDS011;64938;47.696;8.066;2024-02-28T06:08:12;11.17;;;8.53;;
76176;SDS011;64938;47.696;8.066;2024-02-28T06:10:38;12.93;;;8.10;;
76176;SDS011;64938;47.696;8.066;2024-02-28T06:13:04;13.33;;;8.73;;
76176;SDS011;64938;47.696;8.066;2024-02-28T06:15:30;12.70;;;9.40;;
76176;SDS011;64938;47.696;8.066;2024-02-28T06:17:56;10.93;;;8.40;;
76176;SDS011;64938;47.696;8.066;2024-02-28T06:20:25;10.03;;;7.60;;
76176;SDS011;64938;47.696;8.066;2024-02-28T06:22:51;13.73;;;8.87;;
76176;SDS011;64938;47.696;8.066;2024-02-28T06:25:17;10.50;;;7.77;;
76176;SDS011;64938;47.696;8.066;2024-02-28T06:27:45;13.93;;;8.90;;
76176;SDS011;64938;47.696;8.066;2024-02-28T06:30:11;13.30;;;8.80;;
76176;SDS011;64938;47.696;8.066;2024-02-28T06:32:38;11.57;;;8.60;;
76176;SDS011;64938;47.696;8.066;2024-02-28T06:35:05;12.33;;;10.00;;
76176;SDS011;64938;47.696;8.066;2024-02-28T06:37:32;12.20;;;9.07;;
76176;SDS011;64938;47.696;8.066;2024-02-28T06:39:59;13.47;;;9.63;;
76176;SDS011;64938;47.696;8.066;2024-02-28T06:42:24;13.30;;;9.07;;
76176;SDS011;64938;47.696;8.066;2024-02-28T06:44:50;14.93;;;9.53;;
76176;SDS011;64938;47.696;8.066;2024-02-28T06:47:16;14.60;;;8.57;;
76176;SDS011;64938;47.696;8.066;2024-02-28T06:49:43;15.47;;;10.00;;
76176;SDS011;64938;47.696;8.066;2024-02-28T06:52:09;12.83;;;8.97;;
76176;SDS011;64938;47.696;8.066;2024-02-28T06:54:35;14.73;;;9.77;;
76176;SDS011;64938;47.696;8.066;2024-02-28T06:57:01;14.93;;;9.60;;
76176;SDS011;64938;47.696;8.066;2024-02-28T06:59:27;12.70;;;8.47;;
76176;SDS011;64938;47.696;8.066;2024-02-28T07:01:54;13.77;;;9.43;;
76176;SDS011;64938;47.696;8.066;2024-02-28T07:04:20;13.63;;;9.50;;
76176;SDS011;64938;47.696;8.066;2024-02-28T07:06:46;13.53;;;9.57;;
76176;SDS011;64938;47.696;8.066;2024-02-28T07:09:11;11.80;;;7.97;;
76176;SDS011;64938;47.696;8.066;2024-02-28T07:11:38;12.30;;;8.40;;
76176;SDS011;64938;47.696;8.066;2024-02-28T07:14:04;13.50;;;9.23;;
76176;SDS011;64938;47.696;8.066;2024-02-28T07:16:30;14.70;;;9.90;;
76176;SDS011;64938;47.696;8.066;2024-02-28T07:19:01;14.33;;;9.13;;
76176;SDS011;64938;47.696;8.066;2024-02-28T07:21:27;16.00;;;9.40;;
76176;SDS011;64938;47.696;8.066;2024-02-28T07:23:53;14.27;;;9.50;;
76176;SDS011;64938;47.696;8.066;2024-02-28T07:26:19;18.43;;;8.90;;
76176;SDS011;64938;47.696;8.066;2024-02-28T07:28:45;15.90;;;9.70;;
76176;SDS011;64938;47.696;8.066;2024-02-28T07:31:16;12.90;;;9.53;;
76176;SDS011;64938;47.696;8.066;2024-02-28T07:33:42;13.20;;;9.50;;
76176;SDS011;64938;47.696;8.066;2024-02-28T07:36:08;12.23;;;9.13;;
76176;SDS011;64938;47.696;8.066;2024-02-28T07:38:35;14.03;;;9.20;;
76176;SDS011;64938;47.696;8.066;2024-02-28T07:41:01;13.70;;;9.37;;
76176;SDS011;64938;47.696;8.066;2024-02-28T07:43:27;13.80;;;9.27;;
76176;SDS011;64938;47.696;8.066;2024-02-28T07:45:54;14.37;;;9.70;;
76176;SDS011;64938;47.696;8.066;2024-02-28T07:48:19;11.70;;;9.30;;
76176;SDS011;64938;47.696;8.066;2024-02-28T07:50:45;13.40;;;9.77;;
76176;SDS011;64938;47.696;8.066;2024-02-28T07:53:12;11.77;;;9.40;;
76176;SDS011;64938;47.696;8.066;2024-02-28T07:55:38;13.03;;;9.83;;
76176;SDS011;64938;47.696;8.066;2024-02-28T07:58:04;15.00;;;10.63;;
76176;SDS011;64938;47.696;8.066;2024-02-28T08:00:31;12.50;;;8.40;;
76176;SDS011;64938;47.696;8.066;2024-02-28T08:03:01;13.10;;;8.50;;
76176;SDS011;64938;47.696;8.066;2024-02-28T08:05:27;13.20;;;9.67;;
76176;SDS011;64938;47.696;8.066;2024-02-28T08:07:53;12.90;;;9.03;;
76176;SDS011;64938;47.696;8.066;2024-02-28T08:10:19;11.27;;;7.90;;
76176;SDS011;64938;47.696;8.066;2024-02-28T08:12:45;13.20;;;8.30;;
76176;SDS011;64938;47.696;8.066;2024-02-28T08:15:11;13.40;;;8.87;;
76176;SDS011;64938;47.696;8.066;2024-02-28T08:17:36;13.90;;;9.70;;
76176;SDS011;64938;47.696;8.066;2024-02-28T08:20:03;13.20;;;8.43;;
76176;SDS011;64938;47.696;8.066;2024-02-28T08:22:30;12.17;;;8.63;;
76176;SDS011;64938;47.696;8.066;2024-02-28T08:24:57;13.47;;;9.70;;
76176;SDS011;64938;47.696;8.066;2024-02-28T08:27:22;12.10;;;8.77;;
76176;SDS011;64938;47.696;8.066;2024-02-28T08:29:49;13.50;;;9.13;;
76176;SDS011;64938;47.696;8.066;2024-02-28T08:32:15;13.10;;;8.90;;
76176;SDS011;64938;47.696;8.066;2024-02-28T08:34:43;12.70;;;9.47;;
76176;SDS011;64938;47.696;8.066;2024-02-28T08:37:11;11.90;;;9.27;;
76176;SDS011;64938;47.696;8.066;2024-02-28T08:39:38;13.03;;;9.07;;
76176;SDS011;64938;47.696;8.066;2024-02-28T08:42:04;13.30;;;8.63;;
76176;SDS011;64938;47.696;8.066;2024-02-28T08:44:30;12.90;;;8.77;;
76176;SDS011;64938;47.696;8.066;2024-02-28T08:46:56;12.93;;;8.83;;
76176;SDS011;64938;47.696;8.066;2024-02-28T08:49:22;11.53;;;9.03;;
76176;SDS011;64938;47.696;8.066;2024-02-28T08:51:48;21.97;;;9.50;;
76176;SDS011;64938;47.696;8.066;2024-02-28T08:54:14;11.33;;;8.77;;
76176;SDS011;64938;47.696;8.066;2024-02-28T08:56:39;10.80;;;8.20;;
76176;SDS011;64938;47.696;8.066;2024-02-28T08:59:05;12.30;;;8.83;;
76176;SDS011;64938;47.696;8.066;2024-02-28T09:01:32;10.30;;;8.13;;
76176;SDS011;64938;47.696;8.066;2024-02-28T09:03:59;10.97;;;8.00;;
76176;SDS011;64938;47.696;8.066;2024-02-28T09:06:26;10.67;;;7.87;;
76176;SDS011;64938;47.696;8.066;2024-02-28T09:09:04;12.00;;;7.80;;
76176;SDS011;64938;47.696;8.066;2024-02-28T09:11:30;12.33;;;8.73;;
76176;SDS011;64938;47.696;8.066;2024-02-28T09:13:56;13.53;;;9.00;;
76176;SDS011;64938;47.696;8.066;2024-02-28T09:16:22;12.03;;;9.67;;
76176;SDS011;64938;47.696;8.066;2024-02-28T09:18:48;12.70;;;9.87;;
76176;SDS011;64938;47.696;8.066;2024-02-28T09:21:13;10.83;;;7.83;;
76176;SDS011;64938;47.696;8.066;2024-02-28T09:23:40;11.80;;;7.90;;
76176;SDS011;64938;47.696;8.066;2024-02-28T09:26:06;12.57;;;8.70;;
76176;SDS011;64938;47.696;8.066;2024-02-28T09:28:33;8.87;;;7.50;;
76176;SDS011;64938;47.696;8.066;2024-02-28T09:30:59;11.67;;;8.00;;
76176;SDS011;64938;47.696;8.066;2024-02-28T09:33:25;10.63;;;8.57;;
76176;SDS011;64938;47.696;8.066;2024-02-28T09:35:51;13.73;;;8.70;;
76176;SDS011;64938;47.696;8.066;2024-02-28T09:38:17;13.20;;;8.60;;
76176;SDS011;64938;47.696;8.066;2024-02-28T09:40:48;10.20;;;8.47;;
76176;SDS011;64938;47.696;8.066;2024-02-28T09:43:29;10.70;;;8.33;;
76176;SDS011;64938;47.696;8.066;2024-02-28T09:45:57;10.50;;;8.10;;
76176;SDS011;64938;47.696;8.066;2024-02-28T09:48:26;13.40;;;9.30;;
76176;SDS011;64938;47.696;8.066;2024-02-28T09:50:54;10.60;;;8.93;;
76176;SDS011;64938;47.696;8.066;2024-02-28T09:53:21;10.83;;;8.00;;
76176;SDS011;64938;47.696;8.066;2024-02-28T09:55:47;11.20;;;7.87;;
76176;SDS011;64938;47.696;8.066;2024-02-28T09:58:14;10.87;;;8.43;;
76176;SDS011;64938;47.696;8.066;2024-02-28T10:00:41;12.37;;;8.80;;
76176;SDS011;64938;47.696;8.066;2024-02-28T10:03:10;11.13;;;9.10;;
76176;SDS011;64938;47.696;8.066;2024-02-28T10:05:37;10.13;;;8.00;;
76176;SDS011;64938;47.696;8.066;2024-02-28T10:08:04;9.10;;;7.67;;
76176;SDS011;64938;47.696;8.066;2024-02-28T10:10:31;10.47;;;7.90;;
76176;SDS011;64938;47.696;8.066;2024-02-28T10:12:57;8.10;;;7.13;;
76176;SDS011;64938;47.696;8.066;2024-02-28T10:15:27;11.60;;;7.80;;
76176;SDS011;64938;47.696;8.066;2024-02-28T10:17:53;10.07;;;7.77;;
76176;SDS011;64938;47.696;8.066;2024-02-28T10:20:19;9.30;;;7.67;;
76176;SDS011;64938;47.696;8.066;2024-02-28T10:22:45;8.80;;;7.27;;
76176;SDS011;64938;47.696;8.066;2024-02-28T10:25:11;9.70;;;7.73;;
76176;SDS011;64938;47.696;8.066;2024-02-28T10:27:36;9.30;;;7.07;;
76176;SDS011;64938;47.696;8.066;2024-02-28T10:30:03;9.83;;;8.40;;
76176;SDS011;64938;47.696;8.066;2024-02-28T10:32:31;11.00;;;7.70;;
76176;SDS011;64938;47.696;8.066;2024-02-28T10:35:00;9.97;;;8.20;;
76176;SDS011;64938;47.696;8.066;2024-02-28T10:37:26;9.67;;;8.07;;
76176;SDS011;64938;47.696;8.066;2024-02-28T10:39:56;10.80;;;8.40;;
76176;SDS011;64938;47.696;8.066;2024-02-28T10:42:23;11.17;;;8.60;;
76176;SDS011;64938;47.696;8.066;2024-02-28T10:44:53;9.27;;;7.87;;
76176;SDS011;64938;47.696;8.066;2024-02-28T10:47:20;11.93;;;8.33;;
76176;SDS011;64938;47.696;8.066;2024-02-28T10:49:46;9.17;;;7.97;;
76176;SDS011;64938;47.696;8.066;2024-02-28T10:52:12;10.07;;;7.90;;
76176;SDS011;64938;47.696;8.066;2024-02-28T10:54:40;9.50;;;8.20;;
76176;SDS011;64938;47.696;8.066;2024-02-28T10:57:10;11.73;;;8.80;;
76176;SDS011;64938;47.696;8.066;2024-02-28T10:59:38;10.93;;;8.63;;
76176;SDS011;64938;47.696;8.066;2024-02-28T11:02:06;11.97;;;10.00;;
76176;SDS011;64938;47.696;8.066;2024-02-28T11:04:32;10.50;;;9.40;;
76176;SDS011;64938;47.696;8.066;2024-02-28T11:06:57;13.30;;;9.00;;
76176;SDS011;64938;47.696;8.066;2024-02-28T11:09:24;12.43;;;9.83;;
76176;SDS011;64938;47.696;8.066;2024-02-28T11:11:51;12.27;;;9.30;;
76176;SDS011;64938;47.696;8.066;2024-02-28T11:14:17;12.80;;;10.10;;
76176;SDS011;64938;47.696;8.066;2024-02-28T11:16:59;13.33;;;9.77;;
76176;SDS011;64938;47.696;8.066;2024-02-28T11:19:27;13.57;;;9.07;;
76176;SDS011;64938;47.696;8.066;2024-02-28T11:21:55;13.00;;;9.20;;
76176;SDS011;64938;47.696;8.066;2024-02-28T11:24:24;11.87;;;9.37;;
76176;SDS011;64938;47.696;8.066;2024-02-28T11:26:51;11.10;;;8.87;;
76176;SDS011;64938;47.696;8.066;2024-02-28T11:29:24;12.47;;;9.50;;
76176;SDS011;64938;47.696;8.066;2024-02-28T11:31:51;12.83;;;10.27;;
76176;SDS011;64938;47.696;8.066;2024-02-28T11:34:18;10.80;;;9.33;;
76176;SDS011;64938;47.696;8.066;2024-02-28T11:36:47;12.13;;;9.80;;
76176;SDS011;64938;47.696;8.066;2024-02-28T11:39:14;11.73;;;9.30;;
76176;SDS011;64938;47.696;8.066;2024-02-28T11:41:40;13.50;;;9.97;;
76176;SDS011;64938;47.696;8.066;2024-02-28T11:44:07;13.00;;;10.23;;
76176;SDS011;64938;47.696;8.066;2024-02-28T11:46:33;11.87;;;9.43;;
76176;SDS011;64938;47.696;8.066;2024-02-28T11:49:00;10.77;;;9.30;;
76176;SDS011;64938;47.696;8.066;2024-02-28T11:51:27;10.93;;;8.90;;
76176;SDS011;64938;47.696;8.066;2024-02-28T11:53:53;11.60;;;7.83;;
76176;SDS011;64938;47.696;8.066;2024-02-28T11:56:19;9.60;;;7.90;;
76176;SDS011;64938;47.696;8.066;2024-02-28T11:58:50;8.73;;;7.13;;
76176;SDS011;64938;47.696;8.066;2024-02-28T12:01:16;9.83;;;7.83;;
76176;SDS011;64938;47.696;8.066;2024-02-28T12:03:46;8.90;;;7.60;;
76176;SDS011;64938;47.696;8.066;2024-02-28T12:06:12;9.73;;;7.73;;
76176;SDS011;64938;47.696;8.066;2024-02-28T12:08:38;10.20;;;8.20;;
76176;SDS011;64938;47.696;8.066;2024-02-28T12:11:07;8.80;;;6.63;;
76176;SDS011;64938;47.696;8.066;2024-02-28T12:13:34;10.03;;;7.60;;
76176;SDS011;64938;47.696;8.066;2024-02-28T12:16:00;9.30;;;7.30;;
76176;SDS011;64938;47.696;8.066;2024-02-28T12:18:27;8.30;;;7.40;;
76176;SDS011;64938;47.696;8.066;2024-02-28T12:20:53;8.67;;;7.40;;
76176;SDS011;64938;47.696;8.066;2024-02-28T12:23:19;8.93;;;7.40;;
76176;SDS011;64938;47.696;8.066;2024-02-28T12:25:45;9.60;;;6.70;;
76176;SDS011;64938;47.696;8.066;2024-02-28T12:28:11;7.90;;;7.10;;
76176;SDS011;64938;47.696;8.066;2024-02-28T12:30:40;10.07;;;8.00;;
76176;SDS011;64938;47.696;8.066;2024-02-28T12:33:07;8.50;;;6.70;;
76176;SDS011;64938;47.696;8.066;2024-02-28T12:35:34;8.33;;;6.77;;
76176;SDS011;64938;47.696;8.066;2024-02-28T12:38:00;7.53;;;6.00;;
76176;SDS011;64938;47.696;8.066;2024-02-28T12:40:26;7.17;;;6.17;;
76176;SDS011;64938;47.696;8.066;2024-02-28T12:42:52;7.80;;;5.60;;
76176;SDS011;64938;47.696;8.066;2024-02-28T12:45:18;6.10;;;5.07;;
76176;SDS011;64938;47.696;8.066;2024-02-28T12:47:44;6.10;;;5.07;;
76176;SDS011;64938;47.696;8.066;2024-02-28T12:50:10;7.40;;;5.30;;
76176;SDS011;64938;47.696;8.066;2024-02-28T12:52:36;7.27;;;5.50;;
76176;SDS011;64938;47.696;8.066;2024-02-28T12:55:02;8.63;;;7.30;;
76176;SDS011;64938;47.696;8.066;2024-02-28T12:57:28;5.80;;;5.30;;
76176;SDS011;64938;47.696;8.066;2024-02-28T12:59:54;8.27;;;6.50;;
76176;SDS011;64938;47.696;8.066;2024-02-28T13:02:21;8.60;;;6.27;;
76176;SDS011;64938;47.696;8.066;2024-02-28T13:04:47;8.40;;;7.07;;
76176;SDS011;64938;47.696;8.066;2024-02-28T13:07:14;9.00;;;7.13;;
76176;SDS011;64938;47.696;8.066;2024-02-28T13:09:40;7.60;;;5.90;;
76176;SDS011;64938;47.696;8.066;2024-02-28T13:12:07;8.47;;;6.90;;
76176;SDS011;64938;47.696;8.066;2024-02-28T13:14:33;9.60;;;7.20;;
76176;SDS011;64938;47.696;8.066;2024-02-28T13:16:59;8.77;;;7.20;;
76176;SDS011;64938;47.696;8.066;2024-02-28T13:19:26;8.63;;;6.90;;
76176;SDS011;64938;47.696;8.066;2024-02-28T13:21:52;8.10;;;6.67;;
76176;SDS011;64938;47.696;8.066;2024-02-28T13:24:17;10.93;;;7.50;;
76176;SDS011;64938;47.696;8.066;2024-02-28T13:26:43;9.47;;;7.30;;
76176;SDS011;64938;47.696;8.066;2024-02-28T13:29:09;9.73;;;7.60;;
76176;SDS011;64938;47.696;8.066;2024-02-28T13:31:35;9.73;;;7.77;;
76176;SDS011;64938;47.696;8.066;2024-02-28T13:34:01;10.47;;;8.80;;
76176;SDS011;64938;47.696;8.066;2024-02-28T13:36:28;15.73;;;11.50;;
76176;SDS011;64938;47.696;8.066;2024-02-28T13:38:57;15.93;;;12.17;;
76176;SDS011;64938;47.696;8.066;2024-02-28T13:41:23;18.50;;;13.70;;
76176;SDS011;64938;47.696;8.066;2024-02-28T13:43:49;17.67;;;12.03;;
76176;SDS011;64938;47.696;8.066;2024-02-28T13:46:15;15.87;;;12.23;;
76176;SDS011;64938;47.696;8.066;2024-02-28T13:48:41;16.13;;;13.00;;
76176;SDS011;64938;47.696;8.066;2024-02-28T13:51:07;15.17;;;11.50;;
76176;SDS011;64938;47.696;8.066;2024-02-28T13:53:32;15.97;;;11.90;;
76176;SDS011;64938;47.696;8.066;2024-02-28T13:55:58;16.27;;;11.47;;
76176;SDS011;64938;47.696;8.066;2024-02-28T13:58:24;16.90;;;11.60;;
76176;SDS011;64938;47.696;8.066;2024-02-28T14:00:50;14.60;;;10.67;;
76176;SDS011;64938;47.696;8.066;2024-02-28T14:03:16;14.83;;;13.17;;
76176;SDS011;64938;47.696;8.066;2024-02-28T14:05:42;15.43;;;10.90;;
76176;SDS011;64938;47.696;8.066;2024-02-28T14:08:09;14.73;;;11.47;;
76176;SDS011;64938;47.696;8.066;2024-02-28T14:10:37;14.57;;;10.50;;
76176;SDS011;64938;47.696;8.066;2024-02-28T14:13:03;13.73;;;9.90;;
76176;SDS011;64938;47.696;8.066;2024-02-28T14:15:29;16.00;;;11.30;;
76176;SDS011;64938;47.696;8.066;2024-02-28T14:17:55;13.00;;;10.43;;
76176;SDS011;64938;47.696;8.066;2024-02-28T14:20:20;13.60;;;10.50;;
76176;SDS011;64938;47.696;8.066;2024-02-28T14:22:47;14.50;;;10.50;;
76176;SDS011;64938;47.696;8.066;2024-02-28T14:25:14;14.87;;;11.67;;
76176;SDS011;64938;47.696;8.066;2024-02-28T14:27:41;13.73;;;10.80;;